createdAt,value
2019-05-12T00:00:18.390Z,9.93
2019-05-12T00:02:52.252Z,9.33
2019-05-12T00:05:27.749Z,9.78
2019-05-12T00:08:00.470Z,10.90
2019-05-12T00:10:33.732Z,11.08
2019-05-12T00:13:08.406Z,11.43
2019-05-12T00:15:42.485Z,10.55
2019-05-12T00:18:18.080Z,11.00
2019-05-12T00:20:51.303Z,11.10
2019-05-12T00:23:28.075Z,14.78
2019-05-12T00:25:59.492Z,12.58
2019-05-12T00:28:33.253Z,12.70
2019-05-12T00:31:08.368Z,12.30
2019-05-12T00:33:42.414Z,12.55
2019-05-12T00:36:18.578Z,12.43
2019-05-12T00:38:51.467Z,13.80
2019-05-12T00:41:25.254Z,14.50
2019-05-12T00:43:59.490Z,14.78
2019-05-12T00:46:33.359Z,14.20
2019-05-12T00:49:08.197Z,13.88
2019-05-12T00:51:41.565Z,14.25
2019-05-12T00:54:14.435Z,13.98
2019-05-12T00:56:48.158Z,13.75
2019-05-12T00:59:20.945Z,13.72
2019-05-12T01:01:54.330Z,14.18
2019-05-12T01:04:29.136Z,13.83
2019-05-12T01:07:03.155Z,14.03
2019-05-12T01:09:38.423Z,15.05
2019-05-12T01:12:12.540Z,15.03
2019-05-12T01:14:47.826Z,13.72
2019-05-12T01:17:21.700Z,14.10
2019-05-12T01:19:54.952Z,13.62
2019-05-12T01:22:28.754Z,13.80
2019-05-12T01:25:02.543Z,14.55
2019-05-12T01:27:37.877Z,14.15
2019-05-12T01:30:10.864Z,13.72
2019-05-12T01:32:43.759Z,14.68
2019-05-12T01:35:18.515Z,15.15
2019-05-12T01:37:52.870Z,16.62
2019-05-12T01:40:28.534Z,17.30
2019-05-12T01:43:01.773Z,16.52
2019-05-12T01:45:34.923Z,17.42
2019-05-12T01:48:09.167Z,15.43
2019-05-12T01:50:42.675Z,15.40
2019-05-12T01:53:15.144Z,14.63
2019-05-12T01:55:48.683Z,14.78
2019-05-12T01:58:22.040Z,15.20
2019-05-12T02:00:58.693Z,14.65
2019-05-12T02:03:31.579Z,14.13
2019-05-12T02:06:05.308Z,13.43
2019-05-12T02:08:47.594Z,14.43
2019-05-12T02:11:37.829Z,14.10
2019-05-12T02:14:10.898Z,13.88
2019-05-12T02:16:45.092Z,14.75
2019-05-12T02:19:18.741Z,13.98
2019-05-12T02:21:53.025Z,15.05
2019-05-12T02:24:30.463Z,14.90
2019-05-12T02:27:02.586Z,15.15
2019-05-12T02:29:38.361Z,13.80
2019-05-12T02:32:12.843Z,14.55
2019-05-12T02:34:47.597Z,14.30
2019-05-12T02:37:21.808Z,15.15
2019-05-12T02:39:55.796Z,16.57
2019-05-12T02:42:29.239Z,15.63
2019-05-12T02:45:05.562Z,14.53
2019-05-12T02:47:38.087Z,15.28
2019-05-12T02:50:14.507Z,15.50
2019-05-12T02:52:48.171Z,15.18
2019-05-12T02:55:25.632Z,15.85
2019-05-12T02:57:59.661Z,15.10
2019-05-12T03:00:36.690Z,15.43
2019-05-12T03:03:14.651Z,15.75
2019-05-12T03:05:54.740Z,15.60
2019-05-12T03:08:28.683Z,18.07
2019-05-12T03:11:05.963Z,17.67
2019-05-12T03:13:38.224Z,16.65
2019-05-12T03:16:14.692Z,15.83
2019-05-12T03:18:46.098Z,15.55
2019-05-12T03:21:19.470Z,17.02
2019-05-12T03:23:55.150Z,15.60
2019-05-12T03:26:28.709Z,16.40
2019-05-12T03:29:05.627Z,15.80
2019-05-12T03:31:40.992Z,16.23
2019-05-12T03:34:18.571Z,15.10
2019-05-12T03:36:51.337Z,14.40
2019-05-12T03:39:24.980Z,14.98
2019-05-12T03:41:58.419Z,14.13
2019-05-12T03:44:35.032Z,13.68
2019-05-12T03:47:06.810Z,15.58
2019-05-12T03:49:40.145Z,15.80
2019-05-12T03:52:15.246Z,15.85
2019-05-12T03:54:48.384Z,15.93
2019-05-12T03:57:21.625Z,16.48
2019-05-12T03:59:54.883Z,15.75
2019-05-12T04:02:28.626Z,16.25
2019-05-12T04:05:05.249Z,16.10
2019-05-12T04:07:38.297Z,17.15
2019-05-12T04:10:11.169Z,16.70
2019-05-12T04:12:44.957Z,15.88
2019-05-12T04:15:18.919Z,17.02
2019-05-12T04:17:54.329Z,16.73
2019-05-12T04:20:28.889Z,17.75
2019-05-12T04:23:06.014Z,18.87
2019-05-12T04:25:50.872Z,18.73
2019-05-12T04:28:15.027Z,19.07
2019-05-12T04:30:48.721Z,19.52
2019-05-12T04:33:25.441Z,18.77
2019-05-12T04:35:57.913Z,19.40
2019-05-12T04:38:30.346Z,18.95
2019-05-12T04:41:05.932Z,18.27
2019-05-12T04:43:38.592Z,19.30
2019-05-12T04:46:14.541Z,18.60
2019-05-12T04:48:48.330Z,19.17
2019-05-12T04:51:21.661Z,21.00
2019-05-12T04:53:55.111Z,21.07
2019-05-12T04:56:29.248Z,23.98
2019-05-12T04:59:05.021Z,22.90
2019-05-12T05:01:37.878Z,22.98
2019-05-12T05:04:11.695Z,21.55
2019-05-12T05:06:45.634Z,21.60
2019-05-12T05:09:19.912Z,21.52
2019-05-12T05:11:54.291Z,19.52
2019-05-12T05:14:27.903Z,20.17
2019-05-12T05:17:05.095Z,19.60
2019-05-12T05:19:36.786Z,20.32
2019-05-12T05:22:10.463Z,20.17
2019-05-12T05:24:44.375Z,21.35
2019-05-12T05:27:18.339Z,19.37
2019-05-12T05:29:54.354Z,19.85
2019-05-12T05:32:27.659Z,18.42
2019-05-12T05:35:03.353Z,19.32
2019-05-12T05:37:41.363Z,19.35
2019-05-12T05:40:14.083Z,18.55
2019-05-12T05:42:47.458Z,18.92
2019-05-12T05:45:24.155Z,18.27
2019-05-12T05:47:59.620Z,18.27
2019-05-12T05:50:30.992Z,17.37
2019-05-12T05:53:04.294Z,17.90
2019-05-12T05:55:37.781Z,17.10
2019-05-12T05:58:11.556Z,16.52
2019-05-12T06:00:45.299Z,17.35
2019-05-12T06:03:23.413Z,17.42
2019-05-12T06:05:53.517Z,16.37
2019-05-12T06:08:26.610Z,17.20
2019-05-12T06:11:00.479Z,17.80
2019-05-12T06:13:34.519Z,16.57
2019-05-12T06:16:13.753Z,16.77
2019-05-12T06:18:43.952Z,17.25
2019-05-12T06:21:18.570Z,17.60
2019-05-12T06:23:53.937Z,18.02
2019-05-12T06:26:32.488Z,17.02
2019-05-12T06:29:01.321Z,18.17
2019-05-12T06:31:36.021Z,18.45
2019-05-12T06:34:15.211Z,20.62
2019-05-12T06:36:45.584Z,20.35
2019-05-12T06:39:20.623Z,18.73
2019-05-12T06:41:56.704Z,20.70
2019-05-12T06:44:28.546Z,20.85
2019-05-12T06:47:06.899Z,20.45
2019-05-12T06:49:37.274Z,21.35
2019-05-12T06:52:10.503Z,22.10
2019-05-12T06:54:51.179Z,19.98
2019-05-12T06:57:25.080Z,18.85
2019-05-12T06:59:55.172Z,19.62
2019-05-12T07:02:30.280Z,21.33
2019-05-12T07:05:04.608Z,20.48
2019-05-12T07:07:42.197Z,20.35
2019-05-12T07:10:35.147Z,20.65
2019-05-12T07:12:59.029Z,20.37
2019-05-12T07:15:24.116Z,20.20
2019-05-12T07:18:04.246Z,20.40
2019-05-12T07:20:38.979Z,20.90
2019-05-12T07:23:14.216Z,22.13
2019-05-12T07:25:47.559Z,22.90
2019-05-12T07:28:23.550Z,23.15
2019-05-12T07:30:57.260Z,22.93
2019-05-12T07:33:35.170Z,23.12
2019-05-12T07:36:08.429Z,24.02
2019-05-12T07:38:43.995Z,23.22
2019-05-12T07:41:19.518Z,25.10
2019-05-12T07:43:56.776Z,26.42
2019-05-12T07:46:29.204Z,26.82
2019-05-12T07:49:03.918Z,27.25
2019-05-12T07:51:40.509Z,26.95
2019-05-12T07:54:14.305Z,26.93
2019-05-12T07:56:48.226Z,27.15
2019-05-12T07:59:21.077Z,28.73
2019-05-12T08:01:54.996Z,30.57
2019-05-12T08:04:31.685Z,23.57
2019-05-12T08:07:04.164Z,12.40
2019-05-12T08:09:38.538Z,8.98
2019-05-12T08:12:16.313Z,6.95
2019-05-12T08:14:45.765Z,7.65
2019-05-12T08:17:19.636Z,5.00
2019-05-12T08:19:53.610Z,4.85
2019-05-12T08:22:29.340Z,4.72
2019-05-12T08:25:01.248Z,4.28
2019-05-12T08:27:39.142Z,4.83
2019-05-12T08:30:10.269Z,5.08
2019-05-12T08:32:44.254Z,5.58
2019-05-12T08:35:25.569Z,4.45
2019-05-12T08:37:54.436Z,5.50
2019-05-12T08:40:27.185Z,5.90
2019-05-12T08:43:08.071Z,5.03
2019-05-12T08:45:37.347Z,4.80
2019-05-12T08:48:16.041Z,4.72
2019-05-12T08:50:45.986Z,4.95
2019-05-12T08:53:20.698Z,5.55
2019-05-12T08:55:53.897Z,5.20
2019-05-12T08:58:33.626Z,5.95
2019-05-12T09:01:04.402Z,5.58
2019-05-12T09:03:38.360Z,6.15
2019-05-12T09:06:15.491Z,6.28
2019-05-12T09:08:49.194Z,6.80
2019-05-12T09:11:21.262Z,6.55
2019-05-12T09:14:00.658Z,5.90
2019-05-12T09:16:29.523Z,5.50
2019-05-12T09:19:04.936Z,6.37
2019-05-12T09:21:38.705Z,6.33
2019-05-12T09:24:14.958Z,6.40
2019-05-12T09:26:47.413Z,7.05
2019-05-12T09:29:21.020Z,6.28
2019-05-12T09:31:59.252Z,5.90
2019-05-12T09:34:29.438Z,6.70
2019-05-12T09:37:06.142Z,6.45
2019-05-12T09:39:47.288Z,6.10
2019-05-12T09:42:19.341Z,6.22
2019-05-12T09:44:50.567Z,6.05
2019-05-12T09:47:27.575Z,6.40
2019-05-12T09:50:00.787Z,4.05
2019-05-12T09:52:33.928Z,5.08
2019-05-12T09:55:06.991Z,5.08
2019-05-12T09:57:42.963Z,4.67
2019-05-12T10:00:18.267Z,4.97
2019-05-12T10:02:59.368Z,5.15
2019-05-12T10:05:30.401Z,4.67
2019-05-12T10:08:04.499Z,5.37
2019-05-12T10:10:41.465Z,4.92
2019-05-12T10:13:15.190Z,4.37
2019-05-12T10:15:48.885Z,3.90
2019-05-12T10:18:24.359Z,3.70
2019-05-12T10:20:56.708Z,3.52
2019-05-12T10:23:30.586Z,3.37
2019-05-12T10:26:09.431Z,3.50
2019-05-12T10:28:43.728Z,3.40
2019-05-12T10:31:18.749Z,3.40
2019-05-12T10:33:57.154Z,3.47
2019-05-12T10:36:30.298Z,3.65
2019-05-12T10:39:04.260Z,3.33
2019-05-12T10:41:38.348Z,3.65
2019-05-12T10:44:10.385Z,3.95
2019-05-12T10:46:44.569Z,3.50
2019-05-12T10:49:19.220Z,3.85
2019-05-12T10:51:53.996Z,3.60
2019-05-12T10:54:26.562Z,3.77
2019-05-12T10:56:58.941Z,3.90
2019-05-12T10:59:38.266Z,3.70
2019-05-12T11:02:13.814Z,4.05
2019-05-12T11:04:46.293Z,4.05
2019-05-12T11:07:22.911Z,5.12
2019-05-12T11:09:54.431Z,4.67
2019-05-12T11:12:29.217Z,5.22
2019-05-12T11:15:06.789Z,4.08
2019-05-12T11:17:53.560Z,5.08
2019-05-12T11:20:27.024Z,3.87
2019-05-12T11:22:59.331Z,3.35
2019-05-12T11:25:34.013Z,4.08
2019-05-12T11:28:06.317Z,3.87
2019-05-12T11:30:39.591Z,4.08
2019-05-12T11:33:13.290Z,3.80
2019-05-12T11:35:47.088Z,4.70
2019-05-12T11:38:20.016Z,4.83
2019-05-12T11:40:53.817Z,5.40
2019-05-12T11:43:29.570Z,5.45
2019-05-12T11:46:01.818Z,5.90
2019-05-12T11:48:35.241Z,6.17
2019-05-12T11:51:08.672Z,6.75
2019-05-12T11:53:41.639Z,7.25
2019-05-12T11:56:14.822Z,7.65
2019-05-12T11:58:51.516Z,7.00
2019-05-12T12:01:24.651Z,6.40
2019-05-12T12:03:57.498Z,6.40
2019-05-12T12:06:30.385Z,5.95
2019-05-12T12:09:09.265Z,6.67
2019-05-12T12:11:43.224Z,6.78
2019-05-12T12:14:16.453Z,6.47
2019-05-12T12:16:50.315Z,7.15
2019-05-12T12:19:33.568Z,6.87
2019-05-12T12:21:59.807Z,8.08
2019-05-12T12:24:33.622Z,7.65
2019-05-12T12:27:06.939Z,8.05
2019-05-12T12:29:40.208Z,8.10
2019-05-12T12:32:18.536Z,9.03
2019-05-12T12:34:47.712Z,9.15
2019-05-12T12:37:24.443Z,8.85
2019-05-12T12:39:58.193Z,8.95
2019-05-12T12:42:35.409Z,9.83
2019-05-12T12:45:18.784Z,8.83
2019-05-12T12:47:53.931Z,9.10
2019-05-12T12:50:30.362Z,10.38
2019-05-12T12:53:00.497Z,9.18
2019-05-12T12:55:32.932Z,10.63
2019-05-12T12:58:05.407Z,9.58
2019-05-12T13:00:47.123Z,10.20
2019-05-12T13:03:14.390Z,10.43
2019-05-12T13:05:46.769Z,10.43
2019-05-12T13:08:21.593Z,10.08
2019-05-12T13:10:54.195Z,9.03
2019-05-12T13:13:28.521Z,9.00
2019-05-12T13:16:01.016Z,9.48
2019-05-12T13:18:36.352Z,9.40
2019-05-12T13:21:09.255Z,9.08
2019-05-12T13:23:42.284Z,7.95
2019-05-12T13:26:15.229Z,8.00
2019-05-12T13:28:53.152Z,8.10
2019-05-12T13:31:24.347Z,8.20
2019-05-12T13:33:57.464Z,7.30
2019-05-12T13:36:37.376Z,7.55
2019-05-12T13:39:11.545Z,7.90
2019-05-12T13:41:45.262Z,7.72
2019-05-12T13:44:17.885Z,8.15
2019-05-12T13:46:54.706Z,8.35
2019-05-12T13:49:30.008Z,7.40
2019-05-12T13:52:04.103Z,7.28
2019-05-12T13:54:37.398Z,7.33
2019-05-12T13:57:13.420Z,6.90
2019-05-12T13:59:47.997Z,6.33
2019-05-12T14:02:23.457Z,6.45
2019-05-12T14:05:00.463Z,5.90
2019-05-12T14:07:34.427Z,6.83
2019-05-12T14:10:06.661Z,5.67
2019-05-12T14:12:39.556Z,5.62
2019-05-12T14:15:14.174Z,6.03
2019-05-12T14:17:48.144Z,5.78
2019-05-12T14:20:20.848Z,5.05
2019-05-12T14:22:54.231Z,4.60
2019-05-12T14:25:30.757Z,4.95
2019-05-12T14:28:05.580Z,4.20
2019-05-12T14:30:41.281Z,4.50
2019-05-12T14:33:10.699Z,4.40
2019-05-12T14:35:46.018Z,4.40
2019-05-12T14:38:19.230Z,5.10
2019-05-12T14:40:53.642Z,4.90
2019-05-12T14:43:26.415Z,4.03
2019-05-12T14:46:04.939Z,4.12
2019-05-12T14:48:34.292Z,3.85
2019-05-12T14:51:07.515Z,3.58
2019-05-12T14:53:40.550Z,3.45
2019-05-12T14:56:14.101Z,3.02
2019-05-12T14:58:50.224Z,3.20
2019-05-12T15:01:23.692Z,3.15
2019-05-12T15:03:55.795Z,3.47
2019-05-12T15:06:29.573Z,3.20
2019-05-12T15:09:04.474Z,3.37
2019-05-12T15:11:36.484Z,2.98
2019-05-12T15:14:09.904Z,3.10
2019-05-12T15:16:44.714Z,3.20
2019-05-12T15:19:20.920Z,3.00
2019-05-12T15:21:53.617Z,2.67
2019-05-12T15:24:26.576Z,3.08
2019-05-12T15:27:00.815Z,3.15
2019-05-12T15:29:33.888Z,3.37
2019-05-12T15:32:06.123Z,3.40
2019-05-12T15:34:39.203Z,3.42
2019-05-12T15:37:12.872Z,3.70
2019-05-12T15:39:46.024Z,3.50
2019-05-12T15:42:19.004Z,3.05
2019-05-12T15:44:53.618Z,3.47
2019-05-12T15:47:29.577Z,3.67
2019-05-12T15:50:00.756Z,3.60
2019-05-12T15:52:38.330Z,3.08
2019-05-12T15:55:07.914Z,3.80
2019-05-12T15:57:40.032Z,3.35
2019-05-12T16:00:16.952Z,3.37
2019-05-12T16:02:48.864Z,3.45
2019-05-12T16:05:28.795Z,3.58
2019-05-12T16:07:57.510Z,3.75
2019-05-12T16:10:29.956Z,3.12
2019-05-12T16:13:02.291Z,3.50
2019-05-12T16:15:36.527Z,3.05
2019-05-12T16:18:10.213Z,3.47
2019-05-12T16:20:44.152Z,3.10
2019-05-12T16:23:24.960Z,3.42
2019-05-12T16:25:53.972Z,3.40
2019-05-12T16:28:26.670Z,3.45
2019-05-12T16:31:06.717Z,3.17
2019-05-12T16:33:36.030Z,3.37
2019-05-12T16:36:11.463Z,3.47
2019-05-12T16:38:44.533Z,3.62
2019-05-12T16:41:19.845Z,3.20
2019-05-12T16:43:53.746Z,2.87
2019-05-12T16:46:26.957Z,3.58
2019-05-12T16:49:00.308Z,3.58
2019-05-12T16:51:35.241Z,2.90
2019-05-12T16:54:08.313Z,3.50
2019-05-12T16:56:43.231Z,3.37
2019-05-12T16:59:21.691Z,3.83
2019-05-12T17:01:50.680Z,3.60
2019-05-12T17:04:23.930Z,3.80
2019-05-12T17:06:56.464Z,3.67
2019-05-12T17:09:28.936Z,3.42
2019-05-12T17:12:01.769Z,3.58
2019-05-12T17:14:36.617Z,3.17
2019-05-12T17:17:10.888Z,3.72
2019-05-12T17:19:44.379Z,3.37
2019-05-12T17:22:18.648Z,2.90
2019-05-12T17:24:53.785Z,3.40
2019-05-12T17:27:28.202Z,2.98
2019-05-12T17:30:04.318Z,3.60
2019-05-12T17:32:36.604Z,2.90
2019-05-12T17:35:10.863Z,3.65
2019-05-12T17:37:43.337Z,3.62
2019-05-12T17:40:19.978Z,3.40
2019-05-12T17:42:49.847Z,3.30
2019-05-12T17:45:23.572Z,3.12
2019-05-12T17:48:03.001Z,3.00
2019-05-12T17:50:31.431Z,3.30
2019-05-12T17:53:04.460Z,3.40
2019-05-12T17:55:42.698Z,2.90
2019-05-12T17:58:13.780Z,3.17
2019-05-12T18:00:51.522Z,3.47
2019-05-12T18:03:23.002Z,3.27
2019-05-12T18:05:54.692Z,3.42
2019-05-12T18:08:32.505Z,4.05
2019-05-12T18:11:03.695Z,3.42
2019-05-12T18:13:39.962Z,3.25
2019-05-12T18:16:20.754Z,4.10
2019-05-12T18:18:46.818Z,3.83
2019-05-12T18:21:22.406Z,3.40
2019-05-12T18:23:54.773Z,3.12
2019-05-12T18:26:27.650Z,3.75
2019-05-12T18:29:00.115Z,3.33
2019-05-12T18:31:33.452Z,3.83
2019-05-12T18:34:07.498Z,3.10
2019-05-12T18:36:40.420Z,4.03
2019-05-12T18:39:15.221Z,3.40
2019-05-12T18:41:48.081Z,3.42
2019-05-12T18:44:26.273Z,3.52
2019-05-12T18:46:56.242Z,2.90
2019-05-12T18:49:29.251Z,3.75
2019-05-12T18:52:03.891Z,3.92
2019-05-12T18:54:35.457Z,3.87
2019-05-12T18:57:08.312Z,3.60
2019-05-12T18:59:46.087Z,3.20
2019-05-12T19:02:22.816Z,3.52
2019-05-12T19:04:49.495Z,3.67
2019-05-12T19:07:35.893Z,3.55
2019-05-12T19:09:58.058Z,3.25
2019-05-12T19:12:35.220Z,3.37
2019-05-12T19:15:10.128Z,3.42
2019-05-12T19:17:43.564Z,3.40
2019-05-12T19:20:15.911Z,3.27
2019-05-12T19:22:57.332Z,4.10
2019-05-12T19:25:23.822Z,3.67
2019-05-12T19:28:06.074Z,3.40
2019-05-12T19:30:31.481Z,3.58
2019-05-12T19:33:06.532Z,3.33
2019-05-12T19:35:38.685Z,3.62
2019-05-12T19:38:15.029Z,3.40
2019-05-12T19:40:54.954Z,3.12
2019-05-12T19:43:23.717Z,3.60
2019-05-12T19:46:02.938Z,3.12
2019-05-12T19:48:35.151Z,3.65
2019-05-12T19:51:20.351Z,3.42
2019-05-12T19:53:39.453Z,3.30
2019-05-12T19:56:14.115Z,3.33
2019-05-12T19:58:47.142Z,3.42
2019-05-12T20:01:26.141Z,4.03
2019-05-12T20:03:57.994Z,3.60
2019-05-12T20:06:30.407Z,3.45
2019-05-12T20:09:08.232Z,3.83
2019-05-12T20:11:38.721Z,3.62
2019-05-12T20:14:19.058Z,3.47
2019-05-12T20:16:46.728Z,3.52
2019-05-12T20:19:25.516Z,3.87
2019-05-12T20:21:55.834Z,3.72
2019-05-12T20:24:29.794Z,4.00
2019-05-12T20:27:04.141Z,3.75
2019-05-12T20:29:38.019Z,3.95
2019-05-12T20:32:13.940Z,3.67
2019-05-12T20:34:52.084Z,3.27
2019-05-12T20:37:22.959Z,3.50
2019-05-12T20:40:02.129Z,4.25
2019-05-12T20:42:41.943Z,3.58
2019-05-12T20:45:08.436Z,3.40
2019-05-12T20:47:44.952Z,3.95
2019-05-12T20:50:17.626Z,3.65
2019-05-12T20:52:57.674Z,3.60
2019-05-12T20:55:25.075Z,3.80
2019-05-12T20:57:59.528Z,4.17
2019-05-12T21:00:39.022Z,4.10
2019-05-12T21:03:13.837Z,4.17
2019-05-12T21:05:50.537Z,4.10
2019-05-12T21:08:27.299Z,4.00
2019-05-12T21:11:01.128Z,4.05
2019-05-12T21:13:34.624Z,3.90
2019-05-12T21:16:16.431Z,3.90
2019-05-12T21:18:49.849Z,3.80
2019-05-12T21:21:27.612Z,4.90
2019-05-12T21:23:59.181Z,4.50
2019-05-12T21:26:48.480Z,5.10
2019-05-12T21:29:25.446Z,5.37
2019-05-12T21:32:02.909Z,5.20
2019-05-12T21:34:34.516Z,4.78
2019-05-12T21:37:07.492Z,4.45
2019-05-12T21:39:45.643Z,4.97
2019-05-12T21:42:15.403Z,5.00
2019-05-12T21:44:49.031Z,4.55
2019-05-12T21:47:24.297Z,5.40
2019-05-12T21:49:58.104Z,5.42
2019-05-12T21:52:39.032Z,5.08
2019-05-12T21:55:15.355Z,4.97
2019-05-12T21:57:44.099Z,4.35
2019-05-12T22:00:27.599Z,4.37
2019-05-12T22:03:02.606Z,4.22
2019-05-12T22:05:50.573Z,4.05
2019-05-12T22:08:17.576Z,4.03
2019-05-12T22:10:46.747Z,4.60
2019-05-12T22:13:21.020Z,4.97
2019-05-12T22:15:57.130Z,4.60
2019-05-12T22:18:30.105Z,4.47
2019-05-12T22:21:06.802Z,4.53
2019-05-12T22:23:42.970Z,4.75
2019-05-12T22:26:14.288Z,4.90
2019-05-12T22:28:50.922Z,4.40
2019-05-12T22:31:24.247Z,4.83
2019-05-12T22:33:58.380Z,3.92
2019-05-12T22:36:33.624Z,4.20
2019-05-12T22:39:09.249Z,4.80
2019-05-12T22:41:43.430Z,4.62
2019-05-12T22:44:20.904Z,4.37
2019-05-12T22:46:50.951Z,4.87
2019-05-12T22:49:25.374Z,4.87
2019-05-12T22:52:02.702Z,4.67
2019-05-12T22:54:34.680Z,4.75
2019-05-12T22:57:08.643Z,4.87
2019-05-12T22:59:44.835Z,5.25
2019-05-12T23:02:28.044Z,5.60
2019-05-12T23:04:55.000Z,4.83
2019-05-12T23:07:29.933Z,5.53
2019-05-12T23:10:06.939Z,5.42
2019-05-12T23:12:39.755Z,5.35
2019-05-12T23:15:14.073Z,5.58
2019-05-12T23:17:49.350Z,5.58
2019-05-12T23:20:25.521Z,5.30
2019-05-12T23:22:59.695Z,5.97
2019-05-12T23:25:33.777Z,6.08
2019-05-12T23:28:10.400Z,6.22
2019-05-12T23:30:48.471Z,6.50
2019-05-12T23:33:17.888Z,6.62
2019-05-12T23:35:53.558Z,6.25
2019-05-12T23:38:25.786Z,6.58
2019-05-12T23:40:59.162Z,6.22
2019-05-12T23:43:34.139Z,6.15
2019-05-12T23:46:08.171Z,6.70
2019-05-12T23:48:43.955Z,5.90
2019-05-12T23:51:17.529Z,6.60
2019-05-12T23:53:50.335Z,6.62
2019-05-12T23:56:23.590Z,6.55
2019-05-12T23:58:57.424Z,6.70
